Terminal Aerodrome Forecast
Issued by NWS

Home | Current Version | Previous Version | Text Only | Print | Product List | Glossary On
Versions: 1 2 3 4 5 6 7 8 9 10 11 12 13 14 15 16 17 18 19
000
FTUS43 KGLD 271720
TAFMCK
TAF
KMCK 271720Z 2718/2818 05008KT 6SM -SHRA BR OVC018
     FM272100 03010KT 6SM -TSRA BKN025CB
     FM280400 34010KT P6SM VCSH BKN060
     FM280600 30004KT 3SM BR BKN015
     FM281100 30007KT P6SM BKN060=

USA.gov is the U.S. government's official web portal to all federal, state and local government web resources and services.